KCSV/CSV METAR and TAF weather

Enter ICAO airport designator
Station Type Date Time Source
KCSV METAR 2022/01/25 19:53 UTC NOAA

KCSV 251953Z AUTO 33008KT 5SM HZ OVC013 01/M02 A3007 RMK AO2 SLP190 T00111022


Station Type Date Time Source
KCSV Decoded METAR 2022/01/25 19:53 UTC NOAA

CROSSVILLE MEMORIAL AIRPORT , TN, United States (KCSV) 35-57N 85-05W 570M
Jan 25, 2022 - 02:53 PM EST / 2022.01.25 1953 UTC
Wind: from the NNW (330 degrees) at 9 MPH (8 KT):0
Visibility: 5 mile(s):0
Sky conditions: overcast
Weather: haze
Temperature: 34.0 F (1.1 C)
Windchill: 26 F (-3 C):1
Dew Point: 28.0 F (-2.2 C)
Relative Humidity: 78%
Pressure (altimeter): 30.07 in. Hg (1018 hPa)
ob: KCSV 251953Z AUTO 33008KT 5SM HZ OVC013 01/M02 A3007 RMK AO2 SLP190 T00111022
cycle: 20

Station Type Date Time Source
KCSV TAF 2022/01/26 06:22 UTC NOAA

TAF KCSV 260520Z 2606/2706 01006KT P6SM SKC

Example: see airport list